Santiago de Cali, Colombia

11:17 PM COT en Septiembre 01, 2014 (GMT -0500)
Alfonso Bonilla Aragon International | Change Station
CLOSE
Current Station
Aeropuerto
Location: Cali,
Altura: 3179 ft
Estaciones meteorológicas cercanas

Alt 3179 ft 3.54 °N, 76.38 °W | Updated 17 minutes ago

Clear
Despejado
75 ° F
Sensación térmica 75 ° F
N
9
Viento Variable Viento desde NE

Hoy
Alta -- | Baja -- ° F
--% Posibilidad de precipitaciones
Ayer
Alta -- | Baja -- ° F
Precip. -- pul
6:00 AM 6:10 PM
Creciente, 47% visible
Presión 29.97 pul
Visibilidad -9999.0 Millas
Nubes
Punto de rocío 64 ° F
Humedad 69%
Precipitaciones 0.00 pul
Espesor de la nieve No disponible.
UV No disponible.
Polen No disponible.
Calidad del aire No disponible.
Flu Activity No disponible.
METAR SKCL 020400Z 05008KT CAVOK 24/18 A2997

More Conditions Fewer Conditions

Presión 29.97 pul
Visibilidad -9999.0 Millas
Nubes
Punto de rocío 64 ° F
Humedad 69%
Precipitaciones 0.00 pul
Espesor de la nieve No disponible.
UV No disponible.
Polen No disponible.
Calidad del aire No disponible.
Flu Activity No disponible.
METAR SKCL 020400Z 05008KT CAVOK 24/18 A2997

More Conditions Fewer Conditions

10-Day Weather Forecast

Almanac

Astronomía

Sep. 01, 2014 Salida Puesta
Hora real 6:00 AM COT 6:10 PM COT
Crepúsculo civil 5:39 AM COT 6:31 PM COT
Crepúsculo náutico 5:14 AM COT 6:56 PM COT
Crepúsculo astronómico 4:50 AM COT 7:20 PM COT
Luna 11:19 AM COT (9/1) 11:36 PM COT (9/1)
Horas de luz 12h 52m
Horas de luz
12h 10m
Tomorrow will be 0m 10s shorter.
Creciente, 47% of the Moon is Illuminated
Sep 2
Creciente
Sep 2
Cuarto creciente
Sep 8
Luna llena
Sep 15
Cuarto menguante
Sep 24
Nueva

Extremos de hoy

Máximos del país Bajas del país

Community

WunderPhotos

Upload Photos

1,749,560 ¡fotos cargadas!

WunderBlogs® & News

Nearby

Calidad del aire

Not available.

Grosos de nieve

Not available.

Actividad de terremotos

Ciudad Distance Mag. Tiempo y dato
No hay informes recientes de la actividad sísmica.
Magnitud mínima muestra es 2,5.

Temperaturas de aguas costeras

Lugar Temperatura
Sin partes meteorológicos de las estaciones

Estaciones meteorológicas cercanas